sensor_id;sensor_type;location;lat;lon;timestamp;P1;durP1;ratioP1;P2;durP2;ratioP2
34405;SDS011;20658;45.630;8.886;2023-03-23T00:01:18;38.78;;;22.27;;
34405;SDS011;20658;45.630;8.886;2023-03-23T00:03:50;38.05;;;23.33;;
34405;SDS011;20658;45.630;8.886;2023-03-23T00:06:19;35.00;;;21.40;;
34405;SDS011;20658;45.630;8.886;2023-03-23T00:08:48;51.15;;;30.88;;
34405;SDS011;20658;45.630;8.886;2023-03-23T00:11:20;36.38;;;23.40;;
34405;SDS011;20658;45.630;8.886;2023-03-23T00:13:51;49.58;;;29.35;;
34405;SDS011;20658;45.630;8.886;2023-03-23T00:16:20;40.75;;;25.40;;
34405;SDS011;20658;45.630;8.886;2023-03-23T00:18:54;54.10;;;25.52;;
34405;SDS011;20658;45.630;8.886;2023-03-23T00:21:26;43.08;;;26.50;;
34405;SDS011;20658;45.630;8.886;2023-03-23T00:24:03;39.60;;;23.77;;
34405;SDS011;20658;45.630;8.886;2023-03-23T00:26:35;45.05;;;25.90;;
34405;SDS011;20658;45.630;8.886;2023-03-23T00:29:05;47.10;;;30.10;;
34405;SDS011;20658;45.630;8.886;2023-03-23T00:31:42;48.42;;;26.50;;
34405;SDS011;20658;45.630;8.886;2023-03-23T00:34:13;42.55;;;27.90;;
34405;SDS011;20658;45.630;8.886;2023-03-23T00:36:44;49.20;;;28.50;;
34405;SDS011;20658;45.630;8.886;2023-03-23T00:39:13;43.92;;;27.98;;
34405;SDS011;20658;45.630;8.886;2023-03-23T00:41:44;40.92;;;25.17;;
34405;SDS011;20658;45.630;8.886;2023-03-23T00:44:13;43.65;;;28.38;;
34405;SDS011;20658;45.630;8.886;2023-03-23T00:46:42;44.35;;;29.75;;
34405;SDS011;20658;45.630;8.886;2023-03-23T00:49:14;43.72;;;27.38;;
34405;SDS011;20658;45.630;8.886;2023-03-23T00:51:45;41.42;;;25.85;;
34405;SDS011;20658;45.630;8.886;2023-03-23T00:54:13;39.72;;;25.08;;
34405;SDS011;20658;45.630;8.886;2023-03-23T00:56:40;38.33;;;24.48;;
34405;SDS011;20658;45.630;8.886;2023-03-23T00:59:09;34.15;;;23.80;;
34405;SDS011;20658;45.630;8.886;2023-03-23T01:01:36;40.55;;;25.33;;
34405;SDS011;20658;45.630;8.886;2023-03-23T01:04:04;37.60;;;23.10;;
34405;SDS011;20658;45.630;8.886;2023-03-23T01:06:32;41.67;;;24.33;;
34405;SDS011;20658;45.630;8.886;2023-03-23T01:12:01;39.55;;;22.02;;
34405;SDS011;20658;45.630;8.886;2023-03-23T01:14:33;33.60;;;21.98;;
34405;SDS011;20658;45.630;8.886;2023-03-23T01:17:00;35.75;;;21.65;;
34405;SDS011;20658;45.630;8.886;2023-03-23T01:19:28;33.55;;;21.30;;
34405;SDS011;20658;45.630;8.886;2023-03-23T01:21:55;34.35;;;22.67;;
34405;SDS011;20658;45.630;8.886;2023-03-23T01:24:22;37.20;;;20.65;;
34405;SDS011;20658;45.630;8.886;2023-03-23T01:32:13;33.13;;;20.08;;
34405;SDS011;20658;45.630;8.886;2023-03-23T01:34:41;39.33;;;22.25;;
34405;SDS011;20658;45.630;8.886;2023-03-23T01:37:08;36.22;;;21.77;;
34405;SDS011;20658;45.630;8.886;2023-03-23T01:39:35;36.10;;;23.25;;
34405;SDS011;20658;45.630;8.886;2023-03-23T01:42:03;34.85;;;22.92;;
34405;SDS011;20658;45.630;8.886;2023-03-23T01:48:01;37.92;;;22.23;;
34405;SDS011;20658;45.630;8.886;2023-03-23T01:50:36;37.70;;;21.60;;
34405;SDS011;20658;45.630;8.886;2023-03-23T01:53:11;34.92;;;21.55;;
34405;SDS011;20658;45.630;8.886;2023-03-23T01:55:39;30.23;;;19.73;;
34405;SDS011;20658;45.630;8.886;2023-03-23T01:58:09;37.85;;;24.02;;
34405;SDS011;20658;45.630;8.886;2023-03-23T02:00:38;38.40;;;23.45;;
34405;SDS011;20658;45.630;8.886;2023-03-23T02:03:09;39.17;;;25.38;;
34405;SDS011;20658;45.630;8.886;2023-03-23T02:05:41;40.13;;;25.70;;
34405;SDS011;20658;45.630;8.886;2023-03-23T02:08:15;37.03;;;23.00;;
34405;SDS011;20658;45.630;8.886;2023-03-23T02:10:46;35.22;;;21.90;;
34405;SDS011;20658;45.630;8.886;2023-03-23T02:16:13;32.30;;;20.85;;
34405;SDS011;20658;45.630;8.886;2023-03-23T02:18:52;28.52;;;19.17;;
34405;SDS011;20658;45.630;8.886;2023-03-23T02:27:30;24.52;;;15.85;;
34405;SDS011;20658;45.630;8.886;2023-03-23T02:33:37;30.02;;;17.02;;
34405;SDS011;20658;45.630;8.886;2023-03-23T02:36:16;29.60;;;17.23;;
34405;SDS011;20658;45.630;8.886;2023-03-23T02:38:54;28.20;;;16.40;;
34405;SDS011;20658;45.630;8.886;2023-03-23T02:41:30;31.00;;;17.60;;
34405;SDS011;20658;45.630;8.886;2023-03-23T02:44:02;27.75;;;16.50;;
34405;SDS011;20658;45.630;8.886;2023-03-23T02:46:31;28.17;;;16.27;;
34405;SDS011;20658;45.630;8.886;2023-03-23T02:49:03;26.58;;;15.90;;
34405;SDS011;20658;45.630;8.886;2023-03-23T02:51:34;29.95;;;16.05;;
34405;SDS011;20658;45.630;8.886;2023-03-23T02:54:03;26.17;;;15.30;;
34405;SDS011;20658;45.630;8.886;2023-03-23T02:56:32;25.10;;;15.32;;
34405;SDS011;20658;45.630;8.886;2023-03-23T02:59:03;29.95;;;14.32;;
34405;SDS011;20658;45.630;8.886;2023-03-23T03:01:50;31.08;;;16.08;;
34405;SDS011;20658;45.630;8.886;2023-03-23T03:04:28;28.98;;;15.57;;
34405;SDS011;20658;45.630;8.886;2023-03-23T03:07:02;29.27;;;15.95;;
34405;SDS011;20658;45.630;8.886;2023-03-23T03:10:02;30.38;;;15.85;;
34405;SDS011;20658;45.630;8.886;2023-03-23T03:12:41;27.55;;;16.67;;
34405;SDS011;20658;45.630;8.886;2023-03-23T03:15:18;27.05;;;16.25;;
34405;SDS011;20658;45.630;8.886;2023-03-23T03:20:54;27.27;;;16.15;;
34405;SDS011;20658;45.630;8.886;2023-03-23T03:23:26;29.67;;;16.92;;
34405;SDS011;20658;45.630;8.886;2023-03-23T03:25:58;26.48;;;16.85;;
34405;SDS011;20658;45.630;8.886;2023-03-23T03:28:41;28.60;;;18.13;;
34405;SDS011;20658;45.630;8.886;2023-03-23T03:31:13;32.72;;;19.40;;
34405;SDS011;20658;45.630;8.886;2023-03-23T03:33:44;32.67;;;19.63;;
34405;SDS011;20658;45.630;8.886;2023-03-23T03:36:16;34.53;;;19.90;;
34405;SDS011;20658;45.630;8.886;2023-03-23T03:38:48;31.52;;;19.00;;
34405;SDS011;20658;45.630;8.886;2023-03-23T03:41:17;33.00;;;19.85;;
34405;SDS011;20658;45.630;8.886;2023-03-23T03:43:46;31.63;;;19.50;;
34405;SDS011;20658;45.630;8.886;2023-03-23T03:46:13;35.88;;;18.65;;
34405;SDS011;20658;45.630;8.886;2023-03-23T03:48:41;32.83;;;17.88;;
34405;SDS011;20658;45.630;8.886;2023-03-23T03:51:08;33.83;;;18.27;;
34405;SDS011;20658;45.630;8.886;2023-03-23T03:53:39;33.92;;;17.83;;
34405;SDS011;20658;45.630;8.886;2023-03-23T03:56:07;31.08;;;17.95;;
34405;SDS011;20658;45.630;8.886;2023-03-23T03:58:41;29.67;;;18.80;;
34405;SDS011;20658;45.630;8.886;2023-03-23T04:01:20;31.55;;;17.65;;
34405;SDS011;20658;45.630;8.886;2023-03-23T04:03:50;33.30;;;19.25;;
34405;SDS011;20658;45.630;8.886;2023-03-23T04:06:36;30.85;;;17.95;;
34405;SDS011;20658;45.630;8.886;2023-03-23T04:09:05;36.08;;;18.05;;
34405;SDS011;20658;45.630;8.886;2023-03-23T04:11:34;32.45;;;18.48;;
34405;SDS011;20658;45.630;8.886;2023-03-23T04:14:19;29.73;;;19.17;;
34405;SDS011;20658;45.630;8.886;2023-03-23T04:16:47;41.13;;;19.20;;
34405;SDS011;20658;45.630;8.886;2023-03-23T04:19:22;34.75;;;19.10;;
34405;SDS011;20658;45.630;8.886;2023-03-23T04:21:49;35.35;;;18.80;;
34405;SDS011;20658;45.630;8.886;2023-03-23T04:24:19;31.33;;;18.67;;
34405;SDS011;20658;45.630;8.886;2023-03-23T04:26:49;28.85;;;19.40;;
34405;SDS011;20658;45.630;8.886;2023-03-23T04:29:24;38.45;;;20.77;;
34405;SDS011;20658;45.630;8.886;2023-03-23T04:32:24;33.92;;;19.23;;
34405;SDS011;20658;45.630;8.886;2023-03-23T04:34:54;35.47;;;19.70;;
34405;SDS011;20658;45.630;8.886;2023-03-23T04:37:27;28.77;;;18.17;;
34405;SDS011;20658;45.630;8.886;2023-03-23T04:39:57;35.45;;;20.48;;
34405;SDS011;20658;45.630;8.886;2023-03-23T04:45:15;31.25;;;19.35;;
34405;SDS011;20658;45.630;8.886;2023-03-23T04:47:49;33.70;;;20.10;;
34405;SDS011;20658;45.630;8.886;2023-03-23T04:50:28;30.35;;;18.83;;
34405;SDS011;20658;45.630;8.886;2023-03-23T04:53:04;31.65;;;18.73;;
34405;SDS011;20658;45.630;8.886;2023-03-23T04:55:33;32.33;;;20.17;;
34405;SDS011;20658;45.630;8.886;2023-03-23T04:58:04;34.13;;;19.23;;
34405;SDS011;20658;45.630;8.886;2023-03-23T05:00:38;34.60;;;20.00;;
34405;SDS011;20658;45.630;8.886;2023-03-23T05:03:06;30.50;;;19.90;;
34405;SDS011;20658;45.630;8.886;2023-03-23T05:05:35;36.22;;;20.90;;
34405;SDS011;20658;45.630;8.886;2023-03-23T05:11:05;28.38;;;18.30;;
34405;SDS011;20658;45.630;8.886;2023-03-23T05:13:37;30.38;;;19.10;;
34405;SDS011;20658;45.630;8.886;2023-03-23T05:16:06;28.95;;;18.38;;
34405;SDS011;20658;45.630;8.886;2023-03-23T05:18:36;31.92;;;18.83;;
34405;SDS011;20658;45.630;8.886;2023-03-23T05:21:06;30.35;;;19.52;;
34405;SDS011;20658;45.630;8.886;2023-03-23T05:23:37;32.88;;;19.35;;
34405;SDS011;20658;45.630;8.886;2023-03-23T05:26:15;34.25;;;19.98;;
34405;SDS011;20658;45.630;8.886;2023-03-23T05:28:43;29.02;;;18.77;;
34405;SDS011;20658;45.630;8.886;2023-03-23T05:31:16;32.13;;;20.13;;
34405;SDS011;20658;45.630;8.886;2023-03-23T05:33:44;30.25;;;19.00;;
34405;SDS011;20658;45.630;8.886;2023-03-23T05:36:27;33.22;;;19.20;;
34405;SDS011;20658;45.630;8.886;2023-03-23T05:39:06;31.65;;;20.98;;
34405;SDS011;20658;45.630;8.886;2023-03-23T05:42:09;35.28;;;24.92;;
34405;SDS011;20658;45.630;8.886;2023-03-23T05:44:50;42.17;;;26.38;;
34405;SDS011;20658;45.630;8.886;2023-03-23T05:47:18;41.75;;;25.15;;
34405;SDS011;20658;45.630;8.886;2023-03-23T05:49:51;40.50;;;24.00;;
34405;SDS011;20658;45.630;8.886;2023-03-23T05:52:21;39.17;;;23.13;;
34405;SDS011;20658;45.630;8.886;2023-03-23T05:54:50;38.25;;;21.40;;
34405;SDS011;20658;45.630;8.886;2023-03-23T05:57:21;36.95;;;22.23;;
34405;SDS011;20658;45.630;8.886;2023-03-23T06:00:01;31.67;;;20.17;;
34405;SDS011;20658;45.630;8.886;2023-03-23T06:02:49;32.03;;;19.08;;
34405;SDS011;20658;45.630;8.886;2023-03-23T06:05:30;31.00;;;19.75;;
34405;SDS011;20658;45.630;8.886;2023-03-23T06:07:58;34.67;;;18.60;;
34405;SDS011;20658;45.630;8.886;2023-03-23T06:10:25;28.58;;;18.35;;
34405;SDS011;20658;45.630;8.886;2023-03-23T06:12:58;31.38;;;17.85;;
34405;SDS011;20658;45.630;8.886;2023-03-23T06:15:38;30.83;;;18.63;;
34405;SDS011;20658;45.630;8.886;2023-03-23T06:18:16;28.38;;;17.95;;
34405;SDS011;20658;45.630;8.886;2023-03-23T06:21:06;30.85;;;18.50;;
34405;SDS011;20658;45.630;8.886;2023-03-23T06:23:46;25.80;;;17.55;;
34405;SDS011;20658;45.630;8.886;2023-03-23T06:26:16;32.38;;;19.15;;
34405;SDS011;20658;45.630;8.886;2023-03-23T06:28:52;31.30;;;17.58;;
34405;SDS011;20658;45.630;8.886;2023-03-23T06:31:20;39.05;;;19.88;;
34405;SDS011;20658;45.630;8.886;2023-03-23T06:33:49;31.40;;;17.65;;
34405;SDS011;20658;45.630;8.886;2023-03-23T06:36:16;33.30;;;18.70;;
34405;SDS011;20658;45.630;8.886;2023-03-23T06:38:56;33.05;;;18.45;;
34405;SDS011;20658;45.630;8.886;2023-03-23T06:41:33;28.70;;;17.60;;
34405;SDS011;20658;45.630;8.886;2023-03-23T06:44:02;26.45;;;16.58;;
34405;SDS011;20658;45.630;8.886;2023-03-23T06:46:31;27.60;;;17.48;;
34405;SDS011;20658;45.630;8.886;2023-03-23T06:49:27;32.03;;;18.05;;
34405;SDS011;20658;45.630;8.886;2023-03-23T06:52:03;26.92;;;17.15;;
34405;SDS011;20658;45.630;8.886;2023-03-23T06:54:32;30.98;;;19.38;;
34405;SDS011;20658;45.630;8.886;2023-03-23T06:57:01;26.95;;;17.65;;
34405;SDS011;20658;45.630;8.886;2023-03-23T06:59:31;30.30;;;18.92;;
34405;SDS011;20658;45.630;8.886;2023-03-23T07:02:00;29.90;;;18.27;;
34405;SDS011;20658;45.630;8.886;2023-03-23T07:04:28;31.23;;;17.73;;
34405;SDS011;20658;45.630;8.886;2023-03-23T07:07:04;31.33;;;18.42;;
34405;SDS011;20658;45.630;8.886;2023-03-23T07:09:39;28.73;;;17.45;;
34405;SDS011;20658;45.630;8.886;2023-03-23T07:12:08;32.92;;;18.08;;
34405;SDS011;20658;45.630;8.886;2023-03-23T07:14:42;30.83;;;16.83;;
34405;SDS011;20658;45.630;8.886;2023-03-23T07:17:10;34.10;;;18.92;;
34405;SDS011;20658;45.630;8.886;2023-03-23T07:19:47;38.00;;;22.27;;
34405;SDS011;20658;45.630;8.886;2023-03-23T07:22:15;42.65;;;20.38;;
34405;SDS011;20658;45.630;8.886;2023-03-23T07:24:48;33.13;;;18.52;;
34405;SDS011;20658;45.630;8.886;2023-03-23T07:27:27;29.52;;;17.80;;
34405;SDS011;20658;45.630;8.886;2023-03-23T07:29:58;29.70;;;18.20;;
34405;SDS011;20658;45.630;8.886;2023-03-23T07:32:26;30.13;;;18.42;;
34405;SDS011;20658;45.630;8.886;2023-03-23T07:34:53;29.38;;;17.67;;
34405;SDS011;20658;45.630;8.886;2023-03-23T07:37:29;28.48;;;18.25;;
34405;SDS011;20658;45.630;8.886;2023-03-23T07:39:58;33.67;;;17.52;;
34405;SDS011;20658;45.630;8.886;2023-03-23T07:42:25;31.52;;;18.20;;
34405;SDS011;20658;45.630;8.886;2023-03-23T07:44:59;31.17;;;17.35;;
34405;SDS011;20658;45.630;8.886;2023-03-23T07:47:27;27.45;;;16.95;;
34405;SDS011;20658;45.630;8.886;2023-03-23T07:49:54;27.20;;;18.15;;
34405;SDS011;20658;45.630;8.886;2023-03-23T07:52:26;29.95;;;17.40;;
34405;SDS011;20658;45.630;8.886;2023-03-23T07:54:55;28.55;;;16.90;;
34405;SDS011;20658;45.630;8.886;2023-03-23T07:57:31;26.88;;;18.48;;
34405;SDS011;20658;45.630;8.886;2023-03-23T08:00:00;31.25;;;18.67;;
34405;SDS011;20658;45.630;8.886;2023-03-23T08:02:43;29.58;;;18.20;;
34405;SDS011;20658;45.630;8.886;2023-03-23T08:05:29;31.33;;;18.63;;
34405;SDS011;20658;45.630;8.886;2023-03-23T08:08:18;29.55;;;17.70;;
34405;SDS011;20658;45.630;8.886;2023-03-23T08:11:03;29.98;;;19.25;;
34405;SDS011;20658;45.630;8.886;2023-03-23T08:13:37;34.97;;;17.75;;
34405;SDS011;20658;45.630;8.886;2023-03-23T08:16:29;29.30;;;17.38;;
34405;SDS011;20658;45.630;8.886;2023-03-23T08:19:35;30.73;;;19.55;;
34405;SDS011;20658;45.630;8.886;2023-03-23T08:22:29;27.38;;;17.63;;
34405;SDS011;20658;45.630;8.886;2023-03-23T08:25:22;29.33;;;18.33;;
34405;SDS011;20658;45.630;8.886;2023-03-23T08:28:17;30.42;;;16.83;;
34405;SDS011;20658;45.630;8.886;2023-03-23T08:31:12;26.38;;;15.90;;
34405;SDS011;20658;45.630;8.886;2023-03-23T08:34:15;21.73;;;13.63;;
34405;SDS011;20658;45.630;8.886;2023-03-23T08:37:01;23.90;;;14.32;;
34405;SDS011;20658;45.630;8.886;2023-03-23T08:39:50;21.48;;;14.50;;
34405;SDS011;20658;45.630;8.886;2023-03-23T08:42:51;20.42;;;13.65;;
34405;SDS011;20658;45.630;8.886;2023-03-23T08:45:45;20.88;;;13.25;;
34405;SDS011;20658;45.630;8.886;2023-03-23T08:48:31;22.42;;;13.90;;
34405;SDS011;20658;45.630;8.886;2023-03-23T08:51:20;19.17;;;12.45;;
34405;SDS011;20658;45.630;8.886;2023-03-23T08:54:08;22.27;;;13.88;;
34405;SDS011;20658;45.630;8.886;2023-03-23T08:56:54;20.17;;;12.82;;
34405;SDS011;20658;45.630;8.886;2023-03-23T08:59:41;28.23;;;13.48;;
34405;SDS011;20658;45.630;8.886;2023-03-23T09:02:20;23.05;;;13.13;;
34405;SDS011;20658;45.630;8.886;2023-03-23T09:05:00;23.10;;;14.27;;
34405;SDS011;20658;45.630;8.886;2023-03-23T09:07:56;21.33;;;13.77;;
34405;SDS011;20658;45.630;8.886;2023-03-23T09:10:24;22.92;;;12.82;;
34405;SDS011;20658;45.630;8.886;2023-03-23T09:12:55;20.50;;;12.20;;
34405;SDS011;20658;45.630;8.886;2023-03-23T09:15:23;24.23;;;13.52;;
34405;SDS011;20658;45.630;8.886;2023-03-23T09:17:52;26.92;;;13.93;;
34405;SDS011;20658;45.630;8.886;2023-03-23T09:20:22;21.67;;;12.88;;
34405;SDS011;20658;45.630;8.886;2023-03-23T09:22:53;19.45;;;12.55;;
34405;SDS011;20658;45.630;8.886;2023-03-23T09:25:26;20.73;;;13.10;;
34405;SDS011;20658;45.630;8.886;2023-03-23T09:27:54;21.35;;;13.80;;
34405;SDS011;20658;45.630;8.886;2023-03-23T09:30:24;25.08;;;14.05;;
34405;SDS011;20658;45.630;8.886;2023-03-23T09:32:54;20.80;;;12.95;;
34405;SDS011;20658;45.630;8.886;2023-03-23T09:35:23;21.60;;;12.60;;
34405;SDS011;20658;45.630;8.886;2023-03-23T09:37:51;22.45;;;13.93;;
34405;SDS011;20658;45.630;8.886;2023-03-23T09:40:21;22.02;;;12.88;;
34405;SDS011;20658;45.630;8.886;2023-03-23T09:42:57;21.20;;;12.40;;
34405;SDS011;20658;45.630;8.886;2023-03-23T09:45:41;21.77;;;12.82;;
34405;SDS011;20658;45.630;8.886;2023-03-23T09:48:28;23.65;;;12.93;;
34405;SDS011;20658;45.630;8.886;2023-03-23T09:51:08;23.23;;;13.50;;
34405;SDS011;20658;45.630;8.886;2023-03-23T09:53:50;19.13;;;12.93;;
34405;SDS011;20658;45.630;8.886;2023-03-23T09:56:23;25.55;;;14.02;;
34405;SDS011;20658;45.630;8.886;2023-03-23T09:58:58;21.13;;;13.15;;
34405;SDS011;20658;45.630;8.886;2023-03-23T10:01:36;20.30;;;12.73;;
34405;SDS011;20658;45.630;8.886;2023-03-23T10:04:08;20.92;;;13.38;;
34405;SDS011;20658;45.630;8.886;2023-03-23T10:06:42;20.77;;;12.88;;
34405;SDS011;20658;45.630;8.886;2023-03-23T10:09:13;23.10;;;14.70;;
34405;SDS011;20658;45.630;8.886;2023-03-23T10:11:49;22.65;;;13.48;;
34405;SDS011;20658;45.630;8.886;2023-03-23T10:14:27;27.25;;;14.25;;
34405;SDS011;20658;45.630;8.886;2023-03-23T10:17:09;24.63;;;14.63;;
34405;SDS011;20658;45.630;8.886;2023-03-23T10:19:45;23.60;;;14.35;;
34405;SDS011;20658;45.630;8.886;2023-03-23T10:22:20;27.23;;;14.32;;
34405;SDS011;20658;45.630;8.886;2023-03-23T10:24:57;20.33;;;14.40;;
34405;SDS011;20658;45.630;8.886;2023-03-23T10:27:36;24.70;;;14.73;;
34405;SDS011;20658;45.630;8.886;2023-03-23T10:30:13;23.70;;;15.30;;
34405;SDS011;20658;45.630;8.886;2023-03-23T10:32:47;23.73;;;14.82;;
34405;SDS011;20658;45.630;8.886;2023-03-23T10:35:19;24.58;;;15.57;;
34405;SDS011;20658;45.630;8.886;2023-03-23T10:37:54;27.70;;;17.00;;
34405;SDS011;20658;45.630;8.886;2023-03-23T10:40:27;29.00;;;16.73;;
34405;SDS011;20658;45.630;8.886;2023-03-23T10:42:59;27.00;;;16.03;;
34405;SDS011;20658;45.630;8.886;2023-03-23T10:45:27;22.83;;;15.07;;
34405;SDS011;20658;45.630;8.886;2023-03-23T10:48:08;26.88;;;16.65;;
34405;SDS011;20658;45.630;8.886;2023-03-23T10:50:48;23.77;;;17.38;;
34405;SDS011;20658;45.630;8.886;2023-03-23T10:53:20;25.48;;;17.88;;
34405;SDS011;20658;45.630;8.886;2023-03-23T10:55:50;24.70;;;18.05;;
34405;SDS011;20658;45.630;8.886;2023-03-23T10:58:26;25.20;;;19.13;;
34405;SDS011;20658;45.630;8.886;2023-03-23T11:00:55;24.30;;;17.15;;
34405;SDS011;20658;45.630;8.886;2023-03-23T11:03:25;29.42;;;18.33;;
34405;SDS011;20658;45.630;8.886;2023-03-23T11:06:06;26.58;;;18.45;;
34405;SDS011;20658;45.630;8.886;2023-03-23T11:08:36;26.30;;;17.83;;
34405;SDS011;20658;45.630;8.886;2023-03-23T11:11:16;23.70;;;16.58;;
34405;SDS011;20658;45.630;8.886;2023-03-23T11:13:49;28.63;;;17.85;;
34405;SDS011;20658;45.630;8.886;2023-03-23T11:16:24;24.77;;;17.73;;
34405;SDS011;20658;45.630;8.886;2023-03-23T11:18:52;27.45;;;18.20;;
34405;SDS011;20658;45.630;8.886;2023-03-23T11:21:21;29.55;;;19.00;;
34405;SDS011;20658;45.630;8.886;2023-03-23T11:23:50;25.70;;;18.77;;
34405;SDS011;20658;45.630;8.886;2023-03-23T11:26:21;30.15;;;19.65;;
34405;SDS011;20658;45.630;8.886;2023-03-23T11:31:23;26.73;;;18.03;;
34405;SDS011;20658;45.630;8.886;2023-03-23T11:33:55;24.85;;;18.38;;
34405;SDS011;20658;45.630;8.886;2023-03-23T11:36:30;24.42;;;18.45;;
34405;SDS011;20658;45.630;8.886;2023-03-23T11:39:00;27.08;;;18.20;;
34405;SDS011;20658;45.630;8.886;2023-03-23T11:41:31;25.90;;;17.08;;
34405;SDS011;20658;45.630;8.886;2023-03-23T11:44:10;24.15;;;16.63;;
34405;SDS011;20658;45.630;8.886;2023-03-23T11:46:40;23.15;;;15.48;;
34405;SDS011;20658;45.630;8.886;2023-03-23T11:49:19;26.38;;;15.35;;
34405;SDS011;20658;45.630;8.886;2023-03-23T11:51:55;22.38;;;14.40;;
34405;SDS011;20658;45.630;8.886;2023-03-23T11:54:36;27.58;;;15.13;;
34405;SDS011;20658;45.630;8.886;2023-03-23T11:59:38;20.73;;;14.38;;
34405;SDS011;20658;45.630;8.886;2023-03-23T12:02:15;20.73;;;14.60;;
34405;SDS011;20658;45.630;8.886;2023-03-23T12:05:26;22.73;;;13.32;;
34405;SDS011;20658;45.630;8.886;2023-03-23T12:08:14;19.80;;;11.93;;
34405;SDS011;20658;45.630;8.886;2023-03-23T12:10:58;19.70;;;12.23;;
34405;SDS011;20658;45.630;8.886;2023-03-23T12:13:47;17.55;;;11.38;;
34405;SDS011;20658;45.630;8.886;2023-03-23T12:16:35;17.08;;;12.55;;
34405;SDS011;20658;45.630;8.886;2023-03-23T12:19:18;26.70;;;15.93;;
34405;SDS011;20658;45.630;8.886;2023-03-23T12:21:59;31.55;;;18.33;;
34405;SDS011;20658;45.630;8.886;2023-03-23T12:24:42;24.27;;;16.52;;
34405;SDS011;20658;45.630;8.886;2023-03-23T12:27:21;27.35;;;18.08;;
34405;SDS011;20658;45.630;8.886;2023-03-23T12:30:02;25.80;;;16.90;;
34405;SDS011;20658;45.630;8.886;2023-03-23T12:33:01;19.95;;;14.85;;
34405;SDS011;20658;45.630;8.886;2023-03-23T12:35:44;26.27;;;15.05;;
34405;SDS011;20658;45.630;8.886;2023-03-23T12:38:25;20.23;;;13.95;;
34405;SDS011;20658;45.630;8.886;2023-03-23T12:41:16;23.83;;;15.52;;
34405;SDS011;20658;45.630;8.886;2023-03-23T12:43:48;21.80;;;14.23;;
34405;SDS011;20658;45.630;8.886;2023-03-23T12:49:36;20.25;;;13.40;;
34405;SDS011;20658;45.630;8.886;2023-03-23T12:52:10;21.73;;;12.40;;
34405;SDS011;20658;45.630;8.886;2023-03-23T12:54:42;21.90;;;12.75;;
34405;SDS011;20658;45.630;8.886;2023-03-23T12:57:18;21.08;;;11.73;;
34405;SDS011;20658;45.630;8.886;2023-03-23T12:59:53;17.55;;;11.73;;
34405;SDS011;20658;45.630;8.886;2023-03-23T13:02:27;18.90;;;11.20;;
34405;SDS011;20658;45.630;8.886;2023-03-23T13:05:02;15.50;;;10.10;;
34405;SDS011;20658;45.630;8.886;2023-03-23T13:07:38;16.75;;;10.85;;
34405;SDS011;20658;45.630;8.886;2023-03-23T13:10:12;20.00;;;11.90;;
34405;SDS011;20658;45.630;8.886;2023-03-23T13:12:48;19.48;;;12.63;;
34405;SDS011;20658;45.630;8.886;2023-03-23T13:15:20;18.48;;;11.55;;
34405;SDS011;20658;45.630;8.886;2023-03-23T13:18:00;18.90;;;10.35;;
34405;SDS011;20658;45.630;8.886;2023-03-23T13:20:51;18.70;;;10.02;;
34405;SDS011;20658;45.630;8.886;2023-03-23T13:23:26;19.05;;;10.23;;
34405;SDS011;20658;45.630;8.886;2023-03-23T13:25:59;15.30;;;10.02;;
34405;SDS011;20658;45.630;8.886;2023-03-23T13:28:29;18.58;;;10.20;;
34405;SDS011;20658;45.630;8.886;2023-03-23T13:31:01;20.05;;;11.65;;
34405;SDS011;20658;45.630;8.886;2023-03-23T13:33:32;15.60;;;10.00;;
34405;SDS011;20658;45.630;8.886;2023-03-23T13:36:07;17.17;;;10.40;;
34405;SDS011;20658;45.630;8.886;2023-03-23T13:38:38;21.02;;;9.88;;
34405;SDS011;20658;45.630;8.886;2023-03-23T13:41:13;15.27;;;9.35;;
34405;SDS011;20658;45.630;8.886;2023-03-23T13:43:46;14.15;;;8.45;;
34405;SDS011;20658;45.630;8.886;2023-03-23T13:46:25;15.77;;;8.10;;
34405;SDS011;20658;45.630;8.886;2023-03-23T13:49:03;17.93;;;8.80;;
34405;SDS011;20658;45.630;8.886;2023-03-23T13:51:56;15.10;;;9.57;;
34405;SDS011;20658;45.630;8.886;2023-03-23T13:54:41;14.13;;;8.27;;
34405;SDS011;20658;45.630;8.886;2023-03-23T13:57:33;13.60;;;8.00;;
34405;SDS011;20658;45.630;8.886;2023-03-23T14:00:12;15.90;;;8.93;;
34405;SDS011;20658;45.630;8.886;2023-03-23T14:03:15;14.30;;;7.47;;
34405;SDS011;20658;45.630;8.886;2023-03-23T14:06:01;16.88;;;7.22;;
34405;SDS011;20658;45.630;8.886;2023-03-23T14:08:45;12.98;;;7.07;;
34405;SDS011;20658;45.630;8.886;2023-03-23T14:11:18;14.48;;;7.47;;
34405;SDS011;20658;45.630;8.886;2023-03-23T14:13:59;14.35;;;7.45;;
34405;SDS011;20658;45.630;8.886;2023-03-23T14:16:36;16.25;;;7.68;;
34405;SDS011;20658;45.630;8.886;2023-03-23T14:19:13;13.85;;;6.38;;
34405;SDS011;20658;45.630;8.886;2023-03-23T14:21:49;13.18;;;6.78;;
34405;SDS011;20658;45.630;8.886;2023-03-23T14:24:22;14.30;;;6.85;;
34405;SDS011;20658;45.630;8.886;2023-03-23T14:26:51;11.45;;;6.10;;
34405;SDS011;20658;45.630;8.886;2023-03-23T14:29:20;12.43;;;6.75;;
34405;SDS011;20658;45.630;8.886;2023-03-23T14:31:52;13.70;;;6.68;;
34405;SDS011;20658;45.630;8.886;2023-03-23T14:34:22;18.75;;;7.30;;
34405;SDS011;20658;45.630;8.886;2023-03-23T14:36:52;12.50;;;6.60;;
34405;SDS011;20658;45.630;8.886;2023-03-23T14:39:23;12.73;;;7.55;;
34405;SDS011;20658;45.630;8.886;2023-03-23T14:41:53;15.07;;;7.82;;
34405;SDS011;20658;45.630;8.886;2023-03-23T14:44:24;13.02;;;7.10;;
34405;SDS011;20658;45.630;8.886;2023-03-23T14:46:55;18.55;;;7.03;;
34405;SDS011;20658;45.630;8.886;2023-03-23T14:49:32;12.15;;;7.28;;
34405;SDS011;20658;45.630;8.886;2023-03-23T14:52:03;14.43;;;6.35;;
34405;SDS011;20658;45.630;8.886;2023-03-23T14:54:37;13.75;;;7.35;;
34405;SDS011;20658;45.630;8.886;2023-03-23T14:57:11;13.18;;;6.47;;
34405;SDS011;20658;45.630;8.886;2023-03-23T14:59:41;19.60;;;7.65;;
34405;SDS011;20658;45.630;8.886;2023-03-23T15:02:10;19.75;;;7.25;;
34405;SDS011;20658;45.630;8.886;2023-03-23T15:04:42;14.18;;;6.63;;
34405;SDS011;20658;45.630;8.886;2023-03-23T15:07:12;15.13;;;6.65;;
34405;SDS011;20658;45.630;8.886;2023-03-23T15:09:44;11.95;;;4.97;;
34405;SDS011;20658;45.630;8.886;2023-03-23T15:12:17;11.10;;;5.45;;
34405;SDS011;20658;45.630;8.886;2023-03-23T15:14:51;11.02;;;4.47;;
34405;SDS011;20658;45.630;8.886;2023-03-23T15:17:22;8.13;;;4.90;;
34405;SDS011;20658;45.630;8.886;2023-03-23T15:19:52;14.55;;;4.70;;
34405;SDS011;20658;45.630;8.886;2023-03-23T15:22:21;12.35;;;5.15;;
34405;SDS011;20658;45.630;8.886;2023-03-23T15:24:53;13.75;;;5.63;;
34405;SDS011;20658;45.630;8.886;2023-03-23T15:27:30;11.05;;;4.75;;
34405;SDS011;20658;45.630;8.886;2023-03-23T15:30:15;9.23;;;4.40;;
34405;SDS011;20658;45.630;8.886;2023-03-23T15:33:00;10.10;;;4.45;;
34405;SDS011;20658;45.630;8.886;2023-03-23T15:35:33;11.25;;;4.55;;
34405;SDS011;20658;45.630;8.886;2023-03-23T15:38:03;12.30;;;4.63;;
34405;SDS011;20658;45.630;8.886;2023-03-23T15:40:35;8.18;;;4.70;;
34405;SDS011;20658;45.630;8.886;2023-03-23T15:43:05;12.82;;;5.00;;
34405;SDS011;20658;45.630;8.886;2023-03-23T15:45:35;12.35;;;4.57;;
34405;SDS011;20658;45.630;8.886;2023-03-23T15:48:10;12.13;;;5.18;;
34405;SDS011;20658;45.630;8.886;2023-03-23T15:50:39;9.80;;;4.68;;